Time;durP1;ratioP1;P1;durP2;ratioP2;P2;SDS_P1;SDS_P2;PMS_P1;PMS_P2;Temp;Humidity;BMP_temperature;BMP_pressure;BME280_temperature;BME280_humidity;BME280_pressure;Samples;Min_cycle;Max_cycle;Signal;HPM_P1;HPM_P2
2022/03/21 00:00:21;;;;;;;36.72;17.25;;;51.40;1510.40;;;;;;4934186;29;20027;-56
2022/03/21 00:02:46;;;;;;;34.92;17.35;;;51.40;1536.00;;;;;;4941179;29;20024;-55
2022/03/21 00:05:12;;;;;;;32.30;16.98;;;51.40;1536.00;;;;;;4939567;29;20051;-56
2022/03/21 00:07:38;;;;;;;37.03;17.30;;;51.30;1536.00;;;;;;4939317;29;20028;-57
2022/03/21 00:10:04;;;;;;;33.10;17.67;;;51.30;1536.00;;;;;;4939647;29;20052;-57
2022/03/21 00:12:30;;;;;;;32.60;16.70;;;51.30;1536.00;;;;;;4939940;29;20492;-57
2022/03/21 00:14:56;;;;;;;29.65;16.30;;;51.30;1536.00;;;;;;4941572;29;20468;-56
2022/03/21 00:17:22;;;;;;;30.65;15.52;;;51.30;1536.00;;;;;;4938834;29;20055;-58
2022/03/21 00:19:48;;;;;;;31.20;14.82;;;51.20;1561.60;;;;;;4943850;29;20106;-57
2022/03/21 00:22:13;;;;;;;26.77;14.52;;;51.20;1561.60;;;;;;4939565;29;20454;-55
2022/03/21 00:24:40;;;;;;;29.08;14.88;;;51.20;1561.60;;;;;;4939294;29;20035;-57
2022/03/21 00:27:12;;;;;;;34.27;17.47;;;51.20;1561.60;;;;;;4940374;29;20055;-57
2022/03/21 00:29:38;;;;;;;50.38;21.00;;;26.50;1536.00;;;;;;4937270;29;20084;-56
2022/03/21 00:32:05;;;;;;;60.95;25.40;;;51.20;1561.60;;;;;;4940918;29;20098;-55
2022/03/21 00:34:31;;;;;;;71.60;28.65;;;51.20;1561.60;;;;;;4938952;29;20036;-57
2022/03/21 00:36:57;;;;;;;72.55;29.98;;;26.50;1536.00;;;;;;4939980;29;20456;-56
2022/03/21 00:39:23;;;;;;;74.93;29.58;;;26.50;1536.00;;;;;;4942436;29;20118;-56
2022/03/21 00:41:49;;;;;;;72.95;31.27;;;26.50;1536.00;;;;;;4942089;29;20024;-56
2022/03/21 00:44:15;;;;;;;71.80;28.58;;;26.50;1536.00;;;;;;4943873;29;20035;-56
2022/03/21 00:46:41;;;;;;;65.28;26.50;;;26.40;1561.60;;;;;;4946380;29;20039;-57
2022/03/21 00:49:11;;;;;;;50.38;22.77;;;26.40;1561.60;;;;;;4945294;29;20083;-56
2022/03/21 00:51:38;;;;;;;49.00;21.35;;;26.40;1561.60;;;;;;4939660;29;20040;-57
2022/03/21 00:54:03;;;;;;;42.25;20.00;;;26.30;1561.60;;;;;;4939181;29;20042;-55
2022/03/21 00:56:29;;;;;;;40.35;18.65;;;26.30;1587.20;;;;;;4939471;29;20111;-57
2022/03/21 00:58:55;;;;;;;37.55;17.77;;;26.30;1561.60;;;;;;4939308;29;20492;-56
2022/03/21 01:01:21;;;;;;;34.00;16.13;;;26.20;1587.20;;;;;;4949965;29;20035;-55
2022/03/21 01:03:46;;;;;;;34.15;16.95;;;26.20;1587.20;;;;;;4958349;29;20031;-56
2022/03/21 01:06:12;;;;;;;40.67;18.83;;;26.20;1587.20;;;;;;4958456;29;20381;-56
2022/03/21 01:08:38;;;;;;;38.63;19.08;;;26.20;1587.20;;;;;;4957887;29;20030;-56
2022/03/21 01:11:04;;;;;;;43.25;19.25;;;26.10;1587.20;;;;;;4958186;29;20125;-55
2022/03/21 01:13:29;;;;;;;38.35;17.90;;;26.10;1587.20;;;;;;4958000;29;20031;-55
2022/03/21 01:15:55;;;;;;;36.05;16.42;;;26.00;1612.80;;;;;;4957937;29;20043;-56
2022/03/21 01:18:25;;;;;;;33.55;17.33;;;26.00;1587.20;;;;;;4956466;29;20055;-55
2022/03/21 01:20:50;;;;;;;32.65;16.60;;;26.00;1587.20;;;;;;4958135;29;20036;-55
2022/03/21 01:23:16;;;;;;;38.00;18.92;;;26.00;1612.80;;;;;;4957731;29;20512;-56
2022/03/21 01:25:42;;;;;;;56.95;25.17;;;26.00;1612.80;;;;;;4958037;29;20078;-58
2022/03/21 01:28:08;;;;;;;78.25;29.92;;;25.90;1612.80;;;;;;4957757;29;20035;-56
2022/03/21 01:30:33;;;;;;;76.20;29.52;;;25.90;1612.80;;;;;;4940171;29;20038;-56
2022/03/21 01:32:59;;;;;;;74.30;28.15;;;25.90;1612.80;;;;;;4957995;29;20384;-55
2022/03/21 01:35:25;;;;;;;74.25;26.77;;;25.90;1612.80;;;;;;4956237;29;20164;-55
2022/03/21 01:37:50;;;;;;;65.15;24.77;;;25.80;1612.80;;;;;;4957714;29;20094;-55
2022/03/21 01:40:17;;;;;;;55.38;22.85;;;25.80;1612.80;;;;;;4940614;29;20023;-57
2022/03/21 01:42:46;;;;;;;45.67;19.70;;;25.80;1612.80;;;;;;4957870;29;20027;-57
2022/03/21 01:45:13;;;;;;;40.78;18.73;;;25.80;1612.80;;;;;;4957628;29;20023;-56
2022/03/21 01:47:39;;;;;;;38.35;15.38;;;25.80;1612.80;;;;;;4957519;28;20126;-57
2022/03/21 01:50:06;;;;;;;30.75;14.82;;;25.70;1612.80;;;;;;4955201;29;20031;-56
2022/03/21 01:52:32;;;;;;;30.58;14.88;;;25.70;1638.40;;;;;;4957098;29;20027;-57
2022/03/21 01:57:43;;;;;;;;;;;25.60;1638.40;;;;;;4958134;29;20034;-56
2022/03/21 02:00:09;;;;;;;32.78;14.75;;;25.60;1638.40;;;;;;4957465;29;19907;-57
2022/03/21 02:02:35;;;;;;;33.67;14.90;;;0.90;1638.40;;;;;;4956972;29;20034;-56
2022/03/21 02:05:00;;;;;;;29.70;13.93;;;25.60;1638.40;;;;;;4957052;29;20031;-56
2022/03/21 02:07:26;;;;;;;29.55;13.73;;;0.90;1638.40;;;;;;4945695;29;20035;-57
2022/03/21 02:09:53;;;;;;;30.02;14.05;;;0.80;1638.40;;;;;;4938097;29;20028;-57
2022/03/21 02:12:20;;;;;;;26.95;13.45;;;0.80;1638.40;;;;;;4937756;29;20111;-56
2022/03/21 02:14:45;;;;;;;27.13;14.07;;;0.80;1638.40;;;;;;4937833;29;20106;-57
2022/03/21 02:17:16;;;;;;;29.05;13.57;;;0.80;1638.40;;;;;;4937932;29;20473;-56
2022/03/21 02:19:45;;;;;;;28.48;12.55;;;0.80;1638.40;;;;;;4937747;29;20110;-57
2022/03/21 02:22:19;;;;;;;25.98;12.60;;;0.60;1638.40;;;;;;4943346;29;20466;-55
2022/03/21 02:25:11;;;;;;;24.30;13.55;;;0.30;1638.40;;;;;;4956902;29;20039;-57
2022/03/21 02:27:38;;;;;;;26.38;12.93;;;0.70;1638.40;;;;;;4956858;29;20098;-57
2022/03/21 02:30:05;;;;;;;26.42;13.20;;;0.60;1664.00;;;;;;4956614;29;20024;-56
2022/03/21 02:32:31;;;;;;;27.33;13.70;;;0.50;1664.00;;;;;;4956558;29;20035;-56
2022/03/21 02:34:58;;;;;;;25.63;12.38;;;0.60;1664.00;;;;;;4956475;29;20039;-57
2022/03/21 02:37:26;;;;;;;24.45;12.43;;;0.50;1664.00;;;;;;4955019;29;20041;-59
2022/03/21 02:39:55;;;;;;;26.92;12.68;;;0.50;1664.00;;;;;;4956578;29;20030;-57
2022/03/21 02:42:21;;;;;;;25.33;12.45;;;0.50;1664.00;;;;;;4956375;29;20019;-56
2022/03/21 02:44:46;;;;;;;23.95;12.07;;;0.50;1664.00;;;;;;4956353;29;20035;-56
2022/03/21 02:47:12;;;;;;;29.30;13.50;;;0.50;1664.00;;;;;;4956466;29;20075;-57
2022/03/21 02:49:38;;;;;;;29.73;13.10;;;0.50;1664.00;;;;;;4956492;29;20038;-59
2022/03/21 02:52:06;;;;;;;32.60;14.55;;;0.50;1664.00;;;;;;4956411;29;20054;-59
2022/03/21 02:54:33;;;;;;;28.35;13.13;;;0.50;1664.00;;;;;;4954476;29;20070;-56
2022/03/21 02:57:00;;;;;;;24.77;13.05;;;0.40;1664.00;;;;;;4956405;29;20031;-57
2022/03/21 02:59:27;;;;;;;22.88;11.88;;;0.50;1664.00;;;;;;4955833;28;20039;-56
2022/03/21 03:01:55;;;;;;;31.50;15.32;;;0.50;1664.00;;;;;;4955784;29;19906;-57
2022/03/21 03:04:22;;;;;;;38.85;17.05;;;0.50;1664.00;;;;;;4956029;29;20106;-57
2022/03/21 03:06:48;;;;;;;47.05;20.13;;;0.60;1664.00;;;;;;4956040;29;20039;-56
2022/03/21 03:09:14;;;;;;;52.20;21.73;;;0.50;1664.00;;;;;;4955955;29;20024;-57
2022/03/21 03:11:40;;;;;;;63.35;23.85;;;0.60;1638.40;;;;;;4954381;29;20050;-57
2022/03/21 03:14:06;;;;;;;75.32;28.70;;;0.50;1638.40;;;;;;4955885;29;20378;-57
2022/03/21 03:16:32;;;;;;;82.43;29.40;;;0.50;1638.40;;;;;;4955884;29;20085;-57
2022/03/21 03:18:58;;;;;;;81.25;30.02;;;0.50;1638.40;;;;;;4956144;29;20525;-56
2022/03/21 03:21:26;;;;;;;74.72;26.30;;;0.50;1664.00;;;;;;4955763;29;20393;-57
2022/03/21 03:23:53;;;;;;;69.05;27.48;;;0.50;1664.00;;;;;;4955499;29;20601;-57
2022/03/21 03:26:19;;;;;;;77.70;28.58;;;0.50;1664.00;;;;;;4955679;29;20078;-57
2022/03/21 03:28:45;;;;;;;74.20;26.02;;;0.50;1664.00;;;;;;4953998;29;20035;-57
2022/03/21 03:31:13;;;;;;;86.03;29.38;;;0.50;1664.00;;;;;;4955600;29;20118;-57
2022/03/21 03:33:40;;;;;;;55.92;24.10;;;0.50;1664.00;;;;;;4955831;29;20051;-57
2022/03/21 03:36:06;;;;;;;53.75;21.45;;;0.50;1664.00;;;;;;4955893;29;20054;-57
2022/03/21 03:38:32;;;;;;;53.47;21.35;;;0.50;1664.00;;;;;;4955123;29;20054;-57
2022/03/21 03:40:58;;;;;;;49.20;21.65;;;0.40;1664.00;;;;;;4955704;29;20035;-57
2022/03/21 03:43:24;;;;;;;55.30;21.98;;;0.40;1664.00;;;;;;4953859;29;20027;-57
2022/03/21 03:45:52;;;;;;;46.05;21.60;;;0.40;1664.00;;;;;;4955446;29;20056;-56
2022/03/21 03:48:20;;;;;;;45.33;20.10;;;0.40;1689.60;;;;;;4955747;29;20046;-57
2022/03/21 03:50:46;;;;;;;36.15;17.73;;;0.40;1689.60;;;;;;4956105;29;20032;-57
2022/03/21 03:53:11;;;;;;;35.05;18.10;;;0.40;1689.60;;;;;;4955255;29;20035;-57
2022/03/21 03:55:37;;;;;;;36.53;17.95;;;0.30;1689.60;;;;;;4955571;29;20047;-57
2022/03/21 03:58:03;;;;;;;31.90;17.05;;;0.30;1689.60;;;;;;4955339;29;20062;-57
2022/03/21 04:00:28;;;;;;;35.55;17.25;;;0.30;1689.60;;;;;;4953612;29;20043;-57
2022/03/21 04:05:38;;;;;;;26.30;12.02;;;0.10;1715.20;;;;;;4955623;29;20074;-59
2022/03/21 04:08:05;;;;;;;23.77;11.57;;;0.10;1715.20;;;;;;4955269;29;20028;-58
2022/03/21 04:10:31;;;;;;;23.80;12.65;;;0.00;1740.80;;;;;;4937699;29;20466;-59
2022/03/21 04:12:56;;;;;;;27.33;12.82;;;0.00;1740.80;;;;;;4958616;28;20107;-59
2022/03/21 04:15:22;;;;;;;24.65;12.25;;;13.00;1740.80;;;;;;4959305;29;20035;-57
2022/03/21 04:17:50;;;;;;;23.80;12.48;;;12.90;1740.80;;;;;;4957401;29;20023;-56
2022/03/21 04:20:16;;;;;;;26.10;12.52;;;13.00;1766.40;;;;;;4959272;29;20039;-57
2022/03/21 04:22:42;;;;;;;25.83;12.25;;;13.00;1766.40;;;;;;4958653;29;20050;-57
2022/03/21 04:25:13;;;;;;;23.48;12.43;;;13.10;1792.00;;;;;;4958959;29;20043;-56
2022/03/21 04:27:39;;;;;;;24.08;12.82;;;13.10;1792.00;;;;;;4959071;29;20035;-59
2022/03/21 04:30:07;;;;;;;26.63;13.90;;;13.10;1792.00;;;;;;4958763;29;20429;-59
2022/03/21 04:32:33;;;;;;;25.80;14.05;;;13.10;1792.00;;;;;;4958779;29;20039;-58
2022/03/21 04:34:58;;;;;;;29.73;14.05;;;13.20;1792.00;;;;;;4957174;29;20039;-59
2022/03/21 04:37:25;;;;;;;26.85;14.38;;;13.10;1792.00;;;;;;4958666;29;20086;-59
2022/03/21 04:39:50;;;;;;;30.02;14.13;;;13.10;1792.00;;;;;;4958667;29;20037;-59
2022/03/21 04:42:16;;;;;;;26.05;13.77;;;13.10;1817.60;;;;;;4958450;29;20110;-57
2022/03/21 04:44:44;;;;;;;26.15;13.90;;;13.10;1817.60;;;;;;4958944;29;20035;-56
2022/03/21 04:47:10;;;;;;;26.70;13.50;;;13.10;1817.60;;;;;;4958630;29;20070;-58
2022/03/21 04:49:36;;;;;;;26.63;13.68;;;13.00;1817.60;;;;;;4958763;29;20370;-58
2022/03/21 04:52:02;;;;;;;29.10;15.13;;;13.10;1817.60;;;;;;4957028;29;20168;-58
2022/03/21 04:54:28;;;;;;;29.80;14.73;;;13.00;1817.60;;;;;;4958116;29;20089;-59
2022/03/21 04:56:55;;;;;;;30.20;14.63;;;13.00;1817.60;;;;;;4958571;29;20052;-59
2022/03/21 04:59:21;;;;;;;29.83;15.75;;;13.00;1817.60;;;;;;4958122;29;20027;-58
2022/03/21 05:01:47;;;;;;;38.92;17.38;;;13.00;1817.60;;;;;;4956771;29;20042;-59
2022/03/21 05:04:13;;;;;;;38.08;18.10;;;13.00;1817.60;;;;;;4941797;29;20385;-59
2022/03/21 05:06:39;;;;;;;39.67;18.80;;;12.90;1792.00;;;;;;4938511;29;20039;-58
2022/03/21 05:09:06;;;;;;;44.53;21.42;;;12.90;1817.60;;;;;;4938945;29;20031;-59
2022/03/21 05:11:32;;;;;;;58.83;28.70;;;0.00;1792.00;;;;;;4939083;29;20111;-57
2022/03/21 05:13:58;;;;;;;44.58;24.40;;;0.00;1792.00;;;;;;4938763;29;20078;-57
2022/03/21 05:16:23;;;;;;;35.33;18.98;;;0.00;1792.00;;;;;;4938888;29;20040;-57
2022/03/21 05:18:50;;;;;;;33.90;18.20;;;0.10;1792.00;;;;;;4938844;29;20027;-57
2022/03/21 05:21:17;;;;;;;38.65;19.27;;;0.10;1792.00;;;;;;4938908;29;20047;-57
2022/03/21 05:31:55;;;;;;;84.18;33.05;;;0.40;1766.40;;;;;;4957873;29;20413;-57
2022/03/21 05:37:05;;;;;;;49.33;22.40;;;0.50;1740.80;;;;;;4946764;29;20046;-58
2022/03/21 05:39:31;;;;;;;55.03;21.95;;;0.50;1740.80;;;;;;4954374;29;20115;-57
2022/03/21 05:41:56;;;;;;;48.42;20.95;;;0.50;1740.80;;;;;;4955993;29;20055;-56
2022/03/21 05:44:24;;;;;;;43.95;18.67;;;0.60;1740.80;;;;;;4954572;29;20218;-57
2022/03/21 05:46:50;;;;;;;42.72;20.10;;;0.80;1715.20;;;;;;4942335;29;20058;-57
2022/03/21 05:49:16;;;;;;;44.70;21.83;;;0.90;1715.20;;;;;;4942204;29;20024;-56
2022/03/21 05:51:42;;;;;;;41.65;19.90;;;0.90;1689.60;;;;;;4951796;29;20033;-57
2022/03/21 05:54:10;;;;;;;42.60;20.23;;;25.60;1689.60;;;;;;4954036;29;20423;-56
2022/03/21 05:56:37;;;;;;;49.28;23.55;;;25.70;1689.60;;;;;;4957324;29;20039;-57
2022/03/21 06:01:48;;;;;;;40.28;20.33;;;25.90;1664.00;;;;;;4944029;29;20098;-58
2022/03/21 06:04:15;;;;;;;44.00;21.95;;;26.00;1664.00;;;;;;4938294;29;20421;-57
2022/03/21 06:06:44;;;;;;;40.25;22.48;;;26.10;1638.40;;;;;;4943172;29;20075;-56
2022/03/21 06:09:10;;;;;;;39.55;20.33;;;26.30;1638.40;;;;;;4956618;29;20031;-56
2022/03/21 06:11:36;;;;;;;37.85;17.88;;;26.40;1638.40;;;;;;4947102;29;20031;-57
2022/03/21 06:14:04;;;;;;;26.63;14.60;;;26.50;1612.80;;;;;;4952339;29;20039;-56
2022/03/21 06:16:30;;;;;;;30.27;16.27;;;51.20;1638.40;;;;;;4949348;29;20039;-59
2022/03/21 06:18:59;;;;;;;33.13;17.00;;;51.40;1612.80;;;;;;4940167;28;20035;-59
2022/03/21 06:21:25;;;;;;;34.05;18.38;;;51.50;1612.80;;;;;;4940628;29;20496;-59
2022/03/21 06:23:52;;;;;;;26.88;15.32;;;51.80;1587.20;;;;;;4935708;29;20127;-59
2022/03/21 06:26:18;;;;;;;29.60;16.20;;;51.80;1587.20;;;;;;4936932;29;20390;-60
2022/03/21 06:28:43;;;;;;;25.75;14.13;;;52.00;1561.60;;;;;;4935859;29;20111;-60
2022/03/21 06:31:09;;;;;;;29.05;16.17;;;76.80;1536.00;;;;;;4936711;29;20059;-59
2022/03/21 06:33:35;;;;;;;26.85;14.57;;;76.90;1536.00;;;;;;4940737;29;20040;-61
2022/03/21 06:36:02;;;;;;;27.58;14.85;;;77.10;1510.40;;;;;;4936682;29;20487;-60
2022/03/21 06:38:30;;;;;;;29.48;15.48;;;77.20;1484.80;;;;;;4936395;29;20086;-59
2022/03/21 06:40:56;;;;;;;26.92;14.40;;;77.30;1459.20;;;;;;4936677;29;20067;-59
2022/03/21 06:43:22;;;;;;;29.42;17.10;;;77.50;1433.60;;;;;;4936023;29;20060;-59
2022/03/21 06:45:51;;;;;;;27.00;15.65;;;77.70;1433.60;;;;;;4936320;29;20389;-59
2022/03/21 06:48:18;;;;;;;24.70;13.65;;;102.80;1408.00;;;;;;4945447;29;20390;-59
2022/03/21 06:50:46;;;;;;;25.23;14.43;;;128.50;1331.20;;;;;;4955099;29;20453;-60
2022/03/21 06:53:13;;;;;;;24.25;15.13;;;179.20;1203.20;;;;;;4947797;29;20447;-60
2022/03/21 06:55:39;;;;;;;26.52;16.60;;;205.70;1049.60;;;;;;4954883;28;20500;-61
2022/03/21 06:58:06;;;;;;;31.63;20.65;;;256.60;921.60;;;;;;4955584;29;20034;-61
2022/03/21 07:00:32;;;;;;;29.45;18.55;;;307.50;870.40;;;;;;4955079;28;20122;-61
2022/03/21 07:02:57;;;;;;;25.30;16.25;;;358.50;793.60;;;;;;4951418;29;20111;-62
2022/03/21 07:05:26;;;;;;;21.15;14.95;;;384.60;716.80;;;;;;4926333;29;20474;-63
2022/03/21 07:07:52;;;;;;;21.23;14.70;;;410.40;665.60;;;;;;4917157;29;20119;-63
2022/03/21 07:10:18;;;;;;;22.80;14.73;;;436.00;640.00;;;;;;4917003;29;20040;-63
2022/03/21 07:12:43;;;;;;;20.25;14.30;;;461.20;640.00;;;;;;4916859;29;20039;-62
2022/03/21 07:15:09;;;;;;;25.02;15.82;;;461.50;614.40;;;;;;4916858;29;20036;-61
2022/03/21 07:17:35;;;;;;;21.60;14.95;;;487.00;588.80;;;;;;4915940;29;20039;-64
2022/03/21 07:20:01;;;;;;;20.77;14.85;;;512.70;537.60;;;;;;4916815;29;20032;-64
2022/03/21 07:22:26;;;;;;;19.08;14.27;;;537.90;537.60;;;;;;4936934;28;20042;-65
2022/03/21 07:24:54;;;;;;;19.52;14.77;;;538.30;512.00;;;;;;4954607;29;20031;-66
2022/03/21 07:27:20;;;;;;;20.85;14.85;;;563.60;512.00;;;;;;4955316;29;20113;-66
2022/03/21 07:29:46;;;;;;;20.25;15.20;;;564.10;486.40;;;;;;4954620;29;20536;-65
2022/03/21 07:32:11;;;;;;;20.38;14.73;;;589.30;486.40;;;;;;4952647;29;20027;-67
2022/03/21 07:34:37;;;;;;;20.02;15.00;;;588.90;486.40;;;;;;4954179;28;20178;-67
2022/03/21 07:37:03;;;;;;;20.08;14.93;;;563.90;512.00;;;;;;4955258;29;20023;-64
2022/03/21 07:39:29;;;;;;;20.75;15.80;;;563.50;512.00;;;;;;4936849;29;20031;-65
2022/03/21 07:42:00;;;;;;;22.95;17.35;;;537.90;537.60;;;;;;4954498;28;20122;-65
2022/03/21 07:47:17;;;;;;;22.20;17.40;;;486.60;563.20;;;;;;4950712;29;20043;-62
2022/03/21 07:49:46;;;;;;;29.48;20.80;;;461.60;614.40;;;;;;4954779;29;20170;-63
2022/03/21 07:52:12;;;;;;;22.92;16.05;;;461.50;614.40;;;;;;4954359;29;20125;-63
2022/03/21 07:54:39;;;;;;;24.27;16.40;;;486.60;588.80;;;;;;4954648;29;20047;-64
2022/03/21 07:57:05;;;;;;;21.58;16.20;;;487.20;563.20;;;;;;4954482;29;20036;-64
2022/03/21 07:59:31;;;;;;;26.27;18.10;;;512.70;537.60;;;;;;4954757;29;20492;-64
2022/03/21 08:01:58;;;;;;;21.75;16.38;;;537.70;537.60;;;;;;4953669;29;20536;-64
2022/03/21 08:04:24;;;;;;;30.10;21.90;;;538.40;512.00;;;;;;4954463;29;20488;-63
2022/03/21 08:06:50;;;;;;;22.83;16.17;;;588.90;486.40;;;;;;4942383;29;20043;-65
2022/03/21 08:09:15;;;;;;;21.25;17.05;;;589.60;460.80;;;;;;4935539;29;20039;-64
2022/03/21 08:11:41;;;;;;;23.52;16.52;;;615.30;409.60;;;;;;4935024;29;20040;-64
2022/03/21 08:14:07;;;;;;;21.90;16.50;;;640.80;384.00;;;;;;4935343;29;20024;-63
2022/03/21 08:16:33;;;;;;;23.77;18.40;;;691.20;358.40;;;;;;4934322;29;20082;-60
2022/03/21 08:18:58;;;;;;;21.60;16.85;;;691.90;332.80;;;;;;4935092;29;20028;-61
2022/03/21 08:21:24;;;;;;;23.83;16.27;;;716.80;358.40;;;;;;4935268;29;20039;-60
2022/03/21 08:23:50;;;;;;;22.23;18.25;;;717.20;332.80;;;;;;4943096;29;20409;-62
2022/03/21 08:26:18;;;;;;;21.42;17.55;;;742.80;332.80;;;;;;4954075;29;20126;-62
2022/03/21 08:28:45;;;;;;;27.00;21.95;;;768.00;307.20;;;;;;4954190;29;20389;-61
2022/03/21 08:31:13;;;;;;;19.70;16.70;;;768.10;307.20;;;;;;4935537;29;20040;-60
2022/03/21 08:33:39;;;;;;;19.00;15.25;;;793.80;307.20;;;;;;4933161;29;20123;-59
2022/03/21 08:36:05;;;;;;;22.42;17.60;;;794.30;281.60;;;;;;4934863;28;20741;-60
2022/03/21 08:38:31;;;;;;;21.45;15.52;;;794.10;307.20;;;;;;4934848;29;20080;-60
2022/03/21 08:40:58;;;;;;;20.80;16.58;;;819.30;281.60;;;;;;4934190;29;20474;-60
2022/03/21 08:43:24;;;;;;;17.27;13.85;;;794.50;307.20;;;;;;4933530;29;20413;-61
2022/03/21 08:45:50;;;;;;;16.35;13.82;;;794.50;281.60;;;;;;4934214;29;20038;-60
2022/03/21 08:48:16;;;;;;;17.52;14.85;;;819.80;256.00;;;;;;4936883;29;20401;-60
2022/03/21 08:50:42;;;;;;;16.30;13.40;;;820.00;256.00;;;;;;4937536;29;20039;-60
2022/03/21 08:53:08;;;;;;;16.10;14.30;;;845.30;256.00;;;;;;4938538;28;20040;-60
2022/03/21 08:55:34;;;;;;;15.07;13.48;;;870.60;256.00;;;;;;4935441;29;20047;-61
2022/03/21 08:58:00;;;;;;;16.00;13.75;;;870.60;256.00;;;;;;4937233;29;20102;-61
2022/03/21 09:00:26;;;;;;;17.95;14.35;;;845.70;256.00;;;;;;4941313;29;20093;-61
2022/03/21 09:02:54;;;;;;;19.48;14.13;;;871.30;256.00;;;;;;4942672;29;20036;-62
2022/03/21 09:05:21;;;;;;;17.88;14.10;;;871.20;256.00;;;;;;4942799;29;20408;-61
2022/03/21 09:07:47;;;;;;;15.35;13.85;;;896.40;256.00;;;;;;4940057;28;20469;-61
2022/03/21 09:10:15;;;;;;;16.33;13.98;;;896.60;256.00;;;;;;4941999;29;20043;-62
2022/03/21 09:12:44;;;;;;;22.88;20.48;;;921.80;281.60;;;;;;4941720;29;20036;-61
2022/03/21 09:15:11;;;;;;;17.08;15.10;;;921.80;281.60;;;;;;4940931;29;20039;-61
2022/03/21 09:17:38;;;;;;;16.30;14.48;;;921.80;281.60;;;;;;4939412;28;20032;-62
2022/03/21 09:20:05;;;;;;;16.83;14.48;;;921.70;281.60;;;;;;4940855;29;20056;-61
2022/03/21 09:22:31;;;;;;;20.45;17.27;;;922.20;281.60;;;;;;4935681;29;20516;-61
2022/03/21 09:24:57;;;;;;;26.45;22.83;;;922.40;281.60;;;;;;4942694;29;20028;-62
2022/03/21 09:27:23;;;;;;;16.13;13.23;;;947.20;281.60;;;;;;4940353;29;20031;-61
2022/03/21 09:29:49;;;;;;;19.75;15.18;;;948.00;281.60;;;;;;4939949;29;20500;-62
2022/03/21 09:32:15;;;;;;;13.73;11.48;;;947.60;281.60;;;;;;4939294;29;20032;-61
2022/03/21 09:34:41;;;;;;;13.40;11.43;;;948.00;281.60;;;;;;4935880;29;20039;-61
2022/03/21 09:37:08;;;;;;;11.88;10.65;;;973.00;307.20;;;;;;4941181;28;20037;-62
2022/03/21 09:39:33;;;;;;;13.02;11.63;;;972.90;307.20;;;;;;4938565;29;20031;-61
2022/03/21 09:42:01;;;;;;;12.52;11.23;;;972.80;307.20;;;;;;4939928;29;20016;-63
2022/03/21 09:44:28;;;;;;;12.10;10.90;;;973.40;307.20;;;;;;4940628;29;20073;-62
2022/03/21 09:46:54;;;;;;;11.00;9.90;;;973.10;307.20;;;;;;4942458;29;20023;-61
2022/03/21 09:49:25;;;;;;;11.85;10.63;;;973.00;307.20;;;;;;4956232;28;20058;-62
2022/03/21 09:51:53;;;;;;;13.20;11.13;;;947.70;281.60;;;;;;4942759;29;20050;-61
2022/03/21 09:54:20;;;;;;;13.75;10.73;;;973.50;307.20;;;;;;4936610;29;20047;-61
2022/03/21 09:56:45;;;;;;;14.23;11.18;;;973.00;307.20;;;;;;4936848;29;20066;-61
2022/03/21 09:59:11;;;;;;;13.90;11.00;;;973.50;307.20;;;;;;4945976;29;20075;-61
2022/03/21 10:01:38;;;;;;;13.77;12.05;;;973.60;307.20;;;;;;4946500;29;20036;-61
2022/03/21 10:04:06;;;;;;;16.85;11.88;;;973.60;307.20;;;;;;4941478;29;20075;-61
2022/03/21 10:06:43;;;;;;;12.88;11.00;;;973.60;307.20;;;;;;4938944;29;20034;-62
2022/03/21 10:09:15;;;;;;;16.15;14.48;;;973.30;307.20;;;;;;4944042;29;20039;-61
2022/03/21 10:11:58;;;;;;;11.43;10.32;;;973.50;307.20;;;;;;4937439;29;20047;-61
2022/03/21 10:14:32;;;;;;;12.55;10.07;;;972.90;307.20;;;;;;4941506;29;20016;-61
2022/03/21 10:17:09;;;;;;;11.63;10.48;;;947.80;281.60;;;;;;4941424;29;20066;-61
2022/03/21 10:19:47;;;;;;;12.63;10.57;;;922.00;281.60;;;;;;4937330;29;20035;-61
2022/03/21 10:22:15;;;;;;;13.52;10.23;;;922.50;281.60;;;;;;4939238;28;20031;-61
2022/03/21 10:24:44;;;;;;;14.90;11.20;;;947.50;281.60;;;;;;4940296;29;20122;-61
2022/03/21 10:27:39;;;;;;;13.45;9.85;;;947.60;281.60;;;;;;4942688;29;20031;-60
2022/03/21 10:30:15;;;;;;;12.88;9.82;;;947.70;281.60;;;;;;4941017;29;20111;-61
2022/03/21 10:32:46;;;;;;;14.18;11.02;;;947.90;281.60;;;;;;4940978;29;20023;-61
2022/03/21 10:35:17;;;;;;;11.57;10.48;;;947.60;281.60;;;;;;4942118;29;20035;-61
2022/03/21 10:37:58;;;;;;;12.35;11.05;;;947.50;281.60;;;;;;4939580;29;20016;-60
2022/03/21 10:40:32;;;;;;;13.40;11.90;;;947.20;281.60;;;;;;4939011;29;20031;-61
2022/03/21 10:43:03;;;;;;;11.95;10.70;;;922.50;281.60;;;;;;4938119;29;20055;-61
2022/03/21 10:45:41;;;;;;;13.60;10.63;;;922.50;281.60;;;;;;4943303;29;20031;-61
2022/03/21 10:48:16;;;;;;;14.48;10.70;;;947.60;281.60;;;;;;4940604;29;20488;-61
2022/03/21 10:50:50;;;;;;;12.32;10.20;;;948.00;281.60;;;;;;4936037;29;20099;-60
2022/03/21 10:53:17;;;;;;;13.45;11.38;;;921.80;281.60;;;;;;4933812;29;20031;-60
2022/03/21 10:55:50;;;;;;;11.80;10.48;;;922.50;281.60;;;;;;4941905;29;20032;-60
2022/03/21 10:58:17;;;;;;;18.48;10.35;;;922.50;281.60;;;;;;4940305;29;20471;-60
2022/03/21 11:00:44;;;;;;;11.98;9.40;;;871.00;256.00;;;;;;4941896;29;20027;-60
2022/03/21 11:03:17;;;;;;;12.30;9.38;;;820.00;230.40;;;;;;4938326;29;20049;-60
2022/03/21 11:05:47;;;;;;;11.05;9.45;;;845.30;256.00;;;;;;4944271;29;20392;-60
2022/03/21 11:08:15;;;;;;;11.65;9.00;;;845.50;256.00;;;;;;4955596;29;20032;-61
2022/03/21 11:10:42;;;;;;;11.65;8.90;;;871.30;256.00;;;;;;4944382;29;20038;-60
2022/03/21 11:13:09;;;;;;;13.93;10.30;;;896.10;256.00;;;;;;4936451;29;20024;-60
2022/03/21 11:15:37;;;;;;;10.90;9.10;;;871.00;256.00;;;;;;4940242;29;20035;-60
2022/03/21 11:18:06;;;;;;;9.57;8.57;;;896.50;256.00;;;;;;4941143;29;20463;-61
2022/03/21 11:20:32;;;;;;;10.07;8.30;;;896.90;256.00;;;;;;4939090;29;20119;-60
2022/03/21 11:23:00;;;;;;;9.57;8.57;;;896.30;256.00;;;;;;4939028;29;20434;-60
2022/03/21 11:25:30;;;;;;;9.93;8.57;;;896.10;256.00;;;;;;4945098;29;20118;-61
2022/03/21 11:28:32;;;;;;;11.93;9.98;;;870.90;256.00;;;;;;4937458;29;20377;-60
2022/03/21 11:31:23;;;;;;;10.57;8.27;;;896.20;256.00;;;;;;4939500;29;20030;-61
2022/03/21 11:34:25;;;;;;;9.68;7.97;;;896.10;256.00;;;;;;4940602;29;20059;-60
2022/03/21 11:36:54;;;;;;;10.40;8.95;;;896.10;256.00;;;;;;4934601;29;20516;-60
2022/03/21 11:39:21;;;;;;;12.73;10.70;;;896.90;256.00;;;;;;4934798;29;20034;-61
2022/03/21 11:42:11;;;;;;;14.02;8.75;;;921.60;281.60;;;;;;4938975;29;20536;-61
2022/03/21 11:44:38;;;;;;;11.88;8.88;;;921.90;281.60;;;;;;4936905;29;20028;-60
2022/03/21 11:47:23;;;;;;;11.05;8.93;;;922.10;281.60;;;;;;4936157;29;20028;-60
2022/03/21 11:49:50;;;;;;;9.60;8.60;;;922.40;281.60;;;;;;4929624;29;20118;-60
2022/03/21 11:52:16;;;;;;;10.73;8.05;;;922.40;281.60;;;;;;4936908;29;20525;-60
2022/03/21 11:54:42;;;;;;;10.88;8.23;;;921.80;281.60;;;;;;4938026;29;20115;-61
2022/03/21 11:57:17;;;;;;;14.32;12.82;;;922.40;281.60;;;;;;4933158;29;20095;-60
2022/03/21 11:59:43;;;;;;;13.95;11.73;;;922.30;281.60;;;;;;4933680;29;20024;-60
2022/03/21 12:02:13;;;;;;;9.52;8.15;;;922.50;281.60;;;;;;4941074;29;20421;-60
2022/03/21 12:04:42;;;;;;;9.70;8.70;;;947.20;281.60;;;;;;4933595;29;20122;-61
2022/03/21 12:07:14;;;;;;;9.68;8.68;;;922.30;281.60;;;;;;4933234;29;20031;-61
2022/03/21 12:09:44;;;;;;;10.38;9.02;;;922.40;281.60;;;;;;4940757;29;20035;-61
2022/03/21 12:12:11;;;;;;;13.18;11.77;;;947.50;281.60;;;;;;4940951;29;20038;-60
2022/03/21 12:14:42;;;;;;;11.80;10.60;;;947.80;281.60;;;;;;4940544;29;20039;-61
2022/03/21 12:17:10;;;;;;;11.48;9.23;;;921.70;281.60;;;;;;4935141;29;20118;-61
2022/03/21 12:19:45;;;;;;;16.05;14.07;;;922.40;281.60;;;;;;4935971;29;20020;-61
2022/03/21 12:22:43;;;;;;;13.57;12.25;;;922.50;281.60;;;;;;4935412;29;20059;-61
2022/03/21 12:25:22;;;;;;;9.95;8.18;;;921.80;281.60;;;;;;4940142;29;20024;-61
2022/03/21 12:28:20;;;;;;;12.30;11.00;;;845.10;256.00;;;;;;4937499;29;20450;-61
2022/03/21 12:30:48;;;;;;;13.32;11.90;;;870.80;256.00;;;;;;4856494;29;20618;-61
2022/03/21 12:33:14;;;;;;;11.48;9.20;;;870.90;256.00;;;;;;4859649;29;20041;-61
2022/03/21 12:35:45;;;;;;;9.65;8.63;;;870.60;256.00;;;;;;4860315;29;20053;-61